createdAt,value
2022-11-10T00:02:08.510Z,100826.66
2022-11-10T00:04:54.242Z,100824.94
2022-11-10T00:07:39.513Z,100819.78
2022-11-10T00:10:24.798Z,100818.78
2022-11-10T00:13:10.126Z,100820.91
2022-11-10T00:16:16.915Z,100824.16
2022-11-10T00:19:02.309Z,100829.06
2022-11-10T00:21:47.389Z,100824.75
2022-11-10T00:24:32.948Z,100831.72
2022-11-10T00:27:18.470Z,100835.81
2022-11-10T00:30:05.734Z,100843.41
2022-11-10T00:32:51.146Z,100839.22
2022-11-10T00:35:36.634Z,100838.53
2022-11-10T00:38:22.076Z,100849.66
2022-11-10T00:41:07.178Z,100850.28
2022-11-10T00:43:52.609Z,100848.34
2022-11-10T00:46:37.959Z,100849.13
2022-11-10T00:49:23.367Z,100857.25
2022-11-10T00:52:08.914Z,100864.44
2022-11-10T00:54:53.802Z,100851.72
2022-11-10T00:57:39.366Z,100856.63
2022-11-10T01:00:24.360Z,100849.00
2022-11-10T01:03:17.499Z,100858.34
2022-11-10T01:06:11.562Z,100859.19
2022-11-10T01:08:56.632Z,100866.63
2022-11-10T01:11:41.555Z,100868.94
2022-11-10T01:14:26.830Z,100881.47
2022-11-10T01:17:12.101Z,100879.44
2022-11-10T01:19:57.165Z,100887.69
2022-11-10T01:22:42.561Z,100888.25
2022-11-10T01:25:28.050Z,100891.66
2022-11-10T01:28:13.458Z,100900.88
2022-11-10T01:31:04.418Z,100897.72
2022-11-10T01:33:49.715Z,100901.47
2022-11-10T01:36:34.646Z,100908.25
2022-11-10T01:39:20.156Z,100912.09
2022-11-10T01:42:05.535Z,100908.53
2022-11-10T01:45:24.490Z,100916.78
2022-11-10T01:48:14.732Z,100912.94
2022-11-10T01:51:09.315Z,100905.72
2022-11-10T01:54:06.177Z,100916.59
2022-11-10T01:56:53.124Z,100923.97
2022-11-10T01:59:49.027Z,100919.03
2022-11-10T02:02:55.824Z,100919.75
2022-11-10T02:05:43.575Z,100911.28
2022-11-10T02:08:29.457Z,100917.25
2022-11-10T02:11:14.718Z,100929.09
2022-11-10T02:14:00.746Z,100933.88
2022-11-10T02:16:46.027Z,100940.06
2022-11-10T02:19:40.041Z,100940.44
2022-11-10T02:22:25.357Z,100935.06
2022-11-10T02:25:13.582Z,100943.41
2022-11-10T02:27:59.204Z,100937.00
2022-11-10T02:30:44.343Z,100929.25
2022-11-10T02:33:30.030Z,100933.97
2022-11-10T02:36:15.853Z,100939.75
2022-11-10T02:39:01.411Z,100948.84
2022-11-10T02:41:46.417Z,100947.03
2022-11-10T02:44:31.618Z,100950.81
2022-11-10T02:47:16.963Z,100953.97
2022-11-10T02:50:02.463Z,100953.84
2022-11-10T02:52:47.611Z,100950.09
2022-11-10T02:55:33.123Z,100956.34
2022-11-10T02:58:18.279Z,100961.53
2022-11-10T03:01:05.797Z,100963.06
2022-11-10T03:03:51.084Z,100972.91
2022-11-10T03:06:36.522Z,100981.84
2022-11-10T03:09:21.900Z,100974.47
2022-11-10T03:12:07.133Z,100971.78
2022-11-10T03:14:52.404Z,100953.41
2022-11-10T03:17:37.680Z,100964.69
2022-11-10T03:20:23.005Z,100974.88
2022-11-10T03:23:08.499Z,100977.41
2022-11-10T03:25:53.336Z,100974.63
2022-11-10T03:28:39.401Z,100976.56
2022-11-10T03:31:24.307Z,100982.03
2022-11-10T03:34:09.490Z,100981.69
2022-11-10T03:36:54.404Z,101001.25
2022-11-10T03:39:40.144Z,100995.38
2022-11-10T03:42:25.538Z,101003.94
2022-11-10T03:45:11.810Z,101005.06
2022-11-10T03:47:57.227Z,101005.78
2022-11-10T03:50:42.243Z,101017.81
2022-11-10T03:53:27.798Z,101022.81
2022-11-10T03:56:13.170Z,101032.28
2022-11-10T03:58:58.745Z,101028.09
2022-11-10T04:01:44.344Z,101030.91
2022-11-10T04:04:48.402Z,101029.28
2022-11-10T04:07:52.949Z,101031.88
2022-11-10T04:10:38.515Z,101037.53
2022-11-10T04:13:42.003Z,101063.03
2022-11-10T04:16:27.116Z,101072.75
2022-11-10T04:19:12.538Z,101068.25
2022-11-10T04:21:57.992Z,101056.28
2022-11-10T04:24:43.490Z,101067.47
2022-11-10T04:27:28.834Z,101072.31
2022-11-10T04:30:13.872Z,101076.81
2022-11-10T04:32:59.102Z,101084.28
2022-11-10T04:35:44.393Z,101086.72
2022-11-10T04:38:29.939Z,101095.03
2022-11-10T04:41:16.241Z,101089.06
2022-11-10T04:44:01.982Z,101107.44
2022-11-10T04:46:47.220Z,101108.38
2022-11-10T04:49:32.496Z,101111.22
2022-11-10T04:52:18.050Z,101120.59
2022-11-10T04:55:03.749Z,101116.34
2022-11-10T04:57:49.084Z,101122.78
2022-11-10T05:00:35.141Z,101128.81
2022-11-10T05:03:20.579Z,101124.31
2022-11-10T05:06:06.137Z,101121.47
2022-11-10T05:08:51.525Z,101126.63
2022-11-10T05:11:36.574Z,101127.25
2022-11-10T05:14:21.919Z,101133.44
2022-11-10T05:17:07.114Z,101141.81
2022-11-10T05:19:52.752Z,101153.44
2022-11-10T05:22:37.896Z,101157.06
2022-11-10T05:25:22.863Z,101163.63
2022-11-10T05:28:10.483Z,101173.22
2022-11-10T05:30:55.808Z,101169.50
2022-11-10T05:33:41.029Z,101177.28
2022-11-10T05:36:26.231Z,101180.34
2022-11-10T05:39:11.364Z,101180.91
2022-11-10T05:41:56.573Z,101193.66
2022-11-10T05:44:41.726Z,101196.69
2022-11-10T05:47:27.221Z,101196.72
2022-11-10T05:50:12.464Z,101199.47
2022-11-10T05:52:57.477Z,101186.16
2022-11-10T05:55:42.633Z,101186.63
2022-11-10T05:58:28.066Z,101195.94
2022-11-10T06:01:13.235Z,101192.16
2022-11-10T06:03:58.596Z,101196.41
2022-11-10T06:06:43.671Z,101200.22
2022-11-10T06:09:28.861Z,101196.59
2022-11-10T06:12:15.513Z,101194.69
2022-11-10T06:15:00.710Z,101199.66
2022-11-10T06:17:46.051Z,101195.84
2022-11-10T06:20:32.082Z,101201.34
2022-11-10T06:23:17.316Z,101217.72
2022-11-10T06:26:02.483Z,101221.06
2022-11-10T06:28:47.626Z,101229.88
2022-11-10T06:31:32.942Z,101238.84
2022-11-10T06:34:18.547Z,101246.34
2022-11-10T06:37:03.944Z,101243.66
2022-11-10T06:39:49.072Z,101247.88
2022-11-10T06:42:34.966Z,101251.75
2022-11-10T06:45:20.788Z,101255.00
2022-11-10T06:48:12.287Z,101269.84
2022-11-10T06:51:01.463Z,101266.13
2022-11-10T06:53:47.433Z,101270.44
2022-11-10T06:56:32.332Z,101285.53
2022-11-10T06:59:17.497Z,101280.69
2022-11-10T07:02:02.847Z,101288.94
2022-11-10T07:04:50.546Z,101292.50
2022-11-10T07:07:35.953Z,101302.56
2022-11-10T07:10:21.209Z,101298.19
2022-11-10T07:13:06.582Z,101306.56
2022-11-10T07:15:52.270Z,101304.28
2022-11-10T07:18:37.637Z,101315.94
2022-11-10T07:21:22.931Z,101314.13
2022-11-10T07:24:08.612Z,101316.31
2022-11-10T07:26:54.005Z,101322.09
2022-11-10T07:29:39.783Z,101329.72
2022-11-10T07:32:25.648Z,101326.66
2022-11-10T07:35:11.538Z,101335.88
2022-11-10T07:37:58.226Z,101335.59
2022-11-10T07:40:43.639Z,101343.28
2022-11-10T07:43:28.535Z,101348.28
2022-11-10T07:46:14.080Z,101348.94
2022-11-10T07:48:59.027Z,101354.56
2022-11-10T07:51:44.275Z,101360.56
2022-11-10T07:54:29.431Z,101360.97
2022-11-10T07:57:14.712Z,101369.53
2022-11-10T08:00:00.197Z,101361.88
2022-11-10T08:02:45.482Z,101372.19
2022-11-10T08:05:31.431Z,101378.28
2022-11-10T08:08:16.950Z,101391.44
2022-11-10T08:11:01.988Z,101390.75
2022-11-10T08:13:47.399Z,101394.84
2022-11-10T08:16:33.006Z,101398.66
2022-11-10T08:19:18.410Z,101409.31
2022-11-10T08:22:03.440Z,101408.47
2022-11-10T08:24:48.769Z,101412.06
2022-11-10T08:27:34.020Z,101406.84
2022-11-10T08:30:19.307Z,101407.22
2022-11-10T08:33:07.337Z,101409.44
2022-11-10T08:35:52.690Z,101417.00
2022-11-10T08:38:38.173Z,101416.13
2022-11-10T08:41:23.655Z,101431.44
2022-11-10T08:44:11.030Z,101431.28
2022-11-10T08:46:56.499Z,101425.94
2022-11-10T08:49:41.809Z,101424.91
2022-11-10T08:52:27.572Z,101438.34
2022-11-10T08:55:13.004Z,101442.59
2022-11-10T08:58:00.641Z,101447.00
2022-11-10T09:00:46.152Z,101453.19
2022-11-10T09:03:31.605Z,101461.09
2022-11-10T09:06:16.871Z,101447.09
2022-11-10T09:09:01.904Z,101440.06
2022-11-10T09:11:47.137Z,101446.63
2022-11-10T09:14:33.251Z,101448.69
2022-11-10T09:17:18.691Z,101449.38
2022-11-10T09:20:05.713Z,101444.53
2022-11-10T09:22:50.966Z,101441.00
2022-11-10T09:25:36.400Z,101456.31
2022-11-10T09:28:23.025Z,101454.91
2022-11-10T09:31:08.100Z,101463.72
2022-11-10T09:33:53.415Z,101474.44
2022-11-10T09:36:40.230Z,101480.44
2022-11-10T09:39:25.706Z,101467.53
2022-11-10T09:42:29.859Z,101482.59
2022-11-10T09:45:39.094Z,101481.16
2022-11-10T09:48:35.696Z,101476.34
2022-11-10T09:51:24.165Z,101492.84
2022-11-10T09:54:40.573Z,101497.03
2022-11-10T09:57:27.189Z,101498.53
2022-11-10T10:00:16.832Z,101510.41
2022-11-10T10:03:04.132Z,101507.81
2022-11-10T10:06:12.327Z,101510.94
2022-11-10T10:09:24.141Z,101512.78
2022-11-10T10:12:55.334Z,101505.03
2022-11-10T10:15:40.814Z,101512.78
2022-11-10T10:18:36.503Z,101509.44
2022-11-10T10:21:36.374Z,101518.47
2022-11-10T10:24:27.526Z,101519.84
2022-11-10T10:27:21.154Z,101520.97
2022-11-10T10:30:18.247Z,101517.16
2022-11-10T10:33:16.710Z,101516.34
2022-11-10T10:36:09.574Z,101508.28
2022-11-10T10:39:00.918Z,101522.00
2022-11-10T10:41:46.882Z,101513.97
2022-11-10T10:44:31.934Z,101506.09
2022-11-10T10:47:17.219Z,101522.00
2022-11-10T10:50:26.202Z,101518.59
2022-11-10T10:53:17.569Z,101521.56
2022-11-10T10:56:22.417Z,101526.03
2022-11-10T10:59:20.848Z,101520.84
2022-11-10T11:02:26.471Z,101530.91
2022-11-10T11:05:19.473Z,101535.47
2022-11-10T11:08:05.285Z,101530.53
2022-11-10T11:10:50.478Z,101541.31
2022-11-10T11:13:35.560Z,101543.22
2022-11-10T11:16:20.856Z,101550.16
2022-11-10T11:19:08.953Z,101546.72
2022-11-10T11:22:04.982Z,101553.59
2022-11-10T11:25:01.366Z,101549.16
2022-11-10T11:28:05.101Z,101551.75
2022-11-10T11:31:05.363Z,101559.59
2022-11-10T11:34:21.518Z,101561.91
2022-11-10T11:37:19.660Z,101562.53
2022-11-10T11:40:32.136Z,101568.19
2022-11-10T11:43:40.920Z,101568.47
2022-11-10T11:46:59.020Z,101573.47
2022-11-10T11:49:59.221Z,101577.47
2022-11-10T11:53:15.007Z,101569.69
2022-11-10T11:56:32.915Z,101577.19
2022-11-10T11:59:39.057Z,101583.06
2022-11-10T12:02:39.016Z,101574.44
2022-11-10T12:05:30.306Z,101591.69
2022-11-10T12:08:18.312Z,101592.31
2022-11-10T12:11:21.926Z,101592.03
2022-11-10T12:14:38.560Z,101589.72
2022-11-10T12:17:43.486Z,101590.03
2022-11-10T12:20:46.575Z,101595.00
2022-11-10T12:23:31.615Z,101602.03
2022-11-10T12:26:19.411Z,101602.44
2022-11-10T12:29:37.439Z,101593.16
2022-11-10T12:32:52.459Z,101608.53
2022-11-10T12:35:42.502Z,101606.06
2022-11-10T12:38:59.554Z,101602.72
2022-11-10T12:41:59.164Z,101609.97
2022-11-10T12:45:05.360Z,101617.41
2022-11-10T12:47:52.635Z,101616.38
2022-11-10T12:50:40.965Z,101622.00
2022-11-10T12:53:29.450Z,101619.38
2022-11-10T12:56:39.363Z,101614.72
2022-11-10T12:59:31.854Z,101616.88
2022-11-10T13:02:50.860Z,101625.00
2022-11-10T13:05:41.903Z,101612.75
2022-11-10T13:08:45.085Z,101622.91
2022-11-10T13:11:34.155Z,101630.19
2022-11-10T13:14:29.135Z,101615.81
2022-11-10T13:17:26.215Z,101611.34
2022-11-10T13:21:09.769Z,101612.69
2022-11-10T13:23:59.371Z,101622.31
2022-11-10T13:26:44.430Z,101622.09
2022-11-10T13:29:34.882Z,101624.41
2022-11-10T13:32:29.201Z,101624.81
2022-11-10T13:35:29.597Z,101629.72
2022-11-10T13:38:32.779Z,101626.38
2022-11-10T13:41:17.894Z,101634.53
2022-11-10T13:44:40.859Z,101626.16
2022-11-10T13:47:42.717Z,101620.41
2022-11-10T13:50:40.864Z,101625.56
2022-11-10T13:54:03.905Z,101620.00
2022-11-10T13:57:17.273Z,101612.50
2022-11-10T14:00:27.691Z,101622.09
2022-11-10T14:03:44.828Z,101628.13
2022-11-10T14:06:45.566Z,101618.28
2022-11-10T14:09:39.406Z,101619.13
2022-11-10T14:12:27.249Z,101623.00
2022-11-10T14:15:17.870Z,101617.03
2022-11-10T14:18:03.630Z,101620.00
2022-11-10T14:20:56.574Z,101623.03
2022-11-10T14:23:53.200Z,101619.19
2022-11-10T14:26:52.057Z,101631.81
2022-11-10T14:29:39.174Z,101639.03
2022-11-10T14:32:25.921Z,101655.50
2022-11-10T14:35:21.114Z,101646.06
2022-11-10T14:38:20.389Z,101642.41
2022-11-10T14:41:13.660Z,101638.56
2022-11-10T14:44:23.618Z,101635.94
2022-11-10T14:47:28.723Z,101639.13
2022-11-10T14:50:13.881Z,101630.59
2022-11-10T14:53:23.053Z,101644.06
2022-11-10T14:56:16.879Z,101650.03
2022-11-10T14:59:04.558Z,101660.25
2022-11-10T15:01:58.897Z,101650.22
2022-11-10T15:04:46.306Z,101660.91
2022-11-10T15:07:31.847Z,101656.44
2022-11-10T15:10:26.490Z,101657.16
2022-11-10T15:13:11.589Z,101656.59
2022-11-10T15:16:23.187Z,101667.25
2022-11-10T15:19:28.521Z,101657.44
2022-11-10T15:22:19.891Z,101662.84
2022-11-10T15:25:21.713Z,101679.69
2022-11-10T15:28:12.549Z,101677.78
2022-11-10T15:31:00.431Z,101669.84
2022-11-10T15:33:48.277Z,101670.00
2022-11-10T15:36:35.963Z,101651.41
2022-11-10T15:39:26.530Z,101655.34
2022-11-10T15:42:29.872Z,101652.88
2022-11-10T15:45:14.957Z,101653.25
2022-11-10T15:48:00.358Z,101670.56
2022-11-10T15:50:49.129Z,101668.44
2022-11-10T15:53:38.498Z,101676.06
2022-11-10T15:56:24.723Z,101682.88
2022-11-10T15:59:11.647Z,101691.81
2022-11-10T16:01:57.001Z,101693.28
2022-11-10T16:04:42.482Z,101673.19
2022-11-10T16:07:27.860Z,101690.13
2022-11-10T16:10:13.130Z,101699.38
2022-11-10T16:12:58.588Z,101709.78
2022-11-10T16:15:45.452Z,101715.50
2022-11-10T16:18:31.134Z,101715.06
2022-11-10T16:21:20.276Z,101718.50
2022-11-10T16:24:05.976Z,101727.16
2022-11-10T16:26:51.191Z,101727.50
2022-11-10T16:29:37.393Z,101721.38
2022-11-10T16:32:22.751Z,101728.81
2022-11-10T16:35:14.879Z,101726.97
2022-11-10T16:38:00.038Z,101731.84
2022-11-10T16:40:50.567Z,101726.09
2022-11-10T16:43:36.566Z,101726.16
2022-11-10T16:46:23.618Z,101730.44
2022-11-10T16:49:32.925Z,101741.03
2022-11-10T16:52:19.323Z,101747.94
2022-11-10T16:55:04.770Z,101743.88
2022-11-10T16:57:50.272Z,101750.09
2022-11-10T17:00:36.101Z,101749.81
2022-11-10T17:03:29.444Z,101752.47
2022-11-10T17:06:16.310Z,101751.38
2022-11-10T17:09:08.471Z,101754.00
2022-11-10T17:11:53.526Z,101759.19
2022-11-10T17:14:38.658Z,101772.91
2022-11-10T17:17:24.349Z,101769.09
2022-11-10T17:20:17.082Z,101771.22
2022-11-10T17:23:03.374Z,101777.53
2022-11-10T17:25:50.723Z,101791.66
2022-11-10T17:28:35.619Z,101799.06
2022-11-10T17:31:20.710Z,101800.91
2022-11-10T17:34:06.005Z,101800.91
2022-11-10T17:36:52.502Z,101796.56
2022-11-10T17:39:37.594Z,101794.38
2022-11-10T17:42:22.612Z,101811.94
2022-11-10T17:45:20.347Z,101796.56
2022-11-10T17:48:06.449Z,101795.31
2022-11-10T17:50:51.795Z,101801.41
2022-11-10T17:53:37.211Z,101797.94
2022-11-10T17:56:22.292Z,101814.72
2022-11-10T17:59:07.368Z,101801.72
2022-11-10T18:01:52.868Z,101799.03
2022-11-10T18:04:38.546Z,101794.75
2022-11-10T18:07:23.907Z,101799.59
2022-11-10T18:10:13.994Z,101806.44
2022-11-10T18:12:59.472Z,101814.13
2022-11-10T18:15:46.894Z,101808.19
2022-11-10T18:18:32.196Z,101807.72
2022-11-10T18:21:17.341Z,101803.22
2022-11-10T18:24:02.415Z,101815.28
2022-11-10T18:26:48.074Z,101816.06
2022-11-10T18:29:33.429Z,101806.72
2022-11-10T18:32:18.590Z,101815.28
2022-11-10T18:35:03.763Z,101821.88
2022-11-10T18:37:48.829Z,101826.28
2022-11-10T18:40:34.233Z,101824.47
2022-11-10T18:43:19.774Z,101831.44
2022-11-10T18:46:05.151Z,101824.09
2022-11-10T18:48:50.193Z,101813.00
2022-11-10T18:51:35.643Z,101817.28
2022-11-10T18:54:20.993Z,101821.09
2022-11-10T18:57:06.067Z,101838.81
2022-11-10T18:59:51.548Z,101834.06
2022-11-10T19:02:36.481Z,101836.16
2022-11-10T19:05:21.645Z,101832.78
2022-11-10T19:08:10.641Z,101817.78
2022-11-10T19:10:56.042Z,101823.63
2022-11-10T19:13:41.098Z,101825.91
2022-11-10T19:16:26.413Z,101821.50
2022-11-10T19:19:11.860Z,101823.72
2022-11-10T19:21:57.007Z,101815.59
2022-11-10T19:25:00.757Z,101822.03
2022-11-10T19:27:47.863Z,101819.16
2022-11-10T19:30:33.051Z,101825.63
2022-11-10T19:33:18.161Z,101822.75
2022-11-10T19:36:18.373Z,101808.53
2022-11-10T19:39:03.824Z,101819.16
2022-11-10T19:41:49.018Z,101827.00
2022-11-10T19:44:34.767Z,101824.63
2022-11-10T19:47:20.145Z,101826.03
2022-11-10T19:50:05.879Z,101821.72
2022-11-10T19:52:50.814Z,101821.16
2022-11-10T19:55:36.762Z,101842.84
2022-11-10T19:58:22.086Z,101842.44
2022-11-10T20:01:08.743Z,101842.84
2022-11-10T20:03:53.964Z,101848.00
2022-11-10T20:06:39.317Z,101856.41
2022-11-10T20:09:24.633Z,101845.91
2022-11-10T20:12:10.298Z,101841.88
2022-11-10T20:14:55.609Z,101843.81
2022-11-10T20:17:41.155Z,101840.06
2022-11-10T20:20:26.224Z,101837.59
2022-11-10T20:23:11.795Z,101842.94
2022-11-10T20:26:16.836Z,101858.50
2022-11-10T20:29:02.078Z,101868.25
2022-11-10T20:31:47.590Z,101860.91
2022-11-10T20:34:32.775Z,101863.09
2022-11-10T20:37:18.097Z,101863.09
2022-11-10T20:40:07.490Z,101860.97
2022-11-10T20:43:04.152Z,101879.22
2022-11-10T20:45:52.332Z,101881.78
2022-11-10T20:48:37.446Z,101882.81
2022-11-10T20:51:22.562Z,101887.41
2022-11-10T20:54:08.611Z,101876.50
2022-11-10T20:56:53.928Z,101879.25
2022-11-10T20:59:39.025Z,101881.69
2022-11-10T21:02:23.994Z,101877.47
2022-11-10T21:05:09.730Z,101888.63
2022-11-10T21:07:55.038Z,101887.69
2022-11-10T21:10:40.124Z,101892.63
2022-11-10T21:13:26.607Z,101900.06
2022-11-10T21:16:11.773Z,101889.47
2022-11-10T21:18:57.452Z,101886.03
2022-11-10T21:21:42.415Z,101892.25
2022-11-10T21:24:30.514Z,101899.50
2022-11-10T21:27:15.783Z,101910.81
2022-11-10T21:30:00.808Z,101914.94
2022-11-10T21:32:45.965Z,101916.47
2022-11-10T21:35:35.326Z,101921.47
2022-11-10T21:38:23.922Z,101920.59
2022-11-10T21:41:08.877Z,101919.53
2022-11-10T21:43:54.332Z,101911.84
2022-11-10T21:46:39.746Z,101910.78
2022-11-10T21:49:25.156Z,101924.50
2022-11-10T21:52:10.219Z,101910.13
2022-11-10T21:54:55.322Z,101912.13
2022-11-10T21:57:41.108Z,101919.53
2022-11-10T22:00:26.708Z,101919.53
2022-11-10T22:03:11.883Z,101912.34
2022-11-10T22:06:06.004Z,101915.97
2022-11-10T22:08:51.286Z,101922.47
2022-11-10T22:11:55.334Z,101917.84
2022-11-10T22:14:59.222Z,101917.63
2022-11-10T22:18:03.262Z,101914.13
2022-11-10T22:20:48.745Z,101913.63
2022-11-10T22:23:52.438Z,101908.47
2022-11-10T22:26:37.979Z,101925.81
2022-11-10T22:29:27.366Z,101927.81
2022-11-10T22:32:16.193Z,101917.22
2022-11-10T22:35:01.362Z,101927.13
2022-11-10T22:37:46.378Z,101928.28
2022-11-10T22:40:51.295Z,101911.69
2022-11-10T22:43:55.130Z,101919.09
2022-11-10T22:46:42.779Z,101920.28
2022-11-10T22:49:28.005Z,101933.94
2022-11-10T22:52:13.242Z,101938.97
2022-11-10T22:54:58.628Z,101949.22
2022-11-10T22:57:43.836Z,101950.97
2022-11-10T23:00:28.892Z,101952.03
2022-11-10T23:03:14.198Z,101941.00
2022-11-10T23:05:59.655Z,101950.41
2022-11-10T23:08:44.865Z,101951.06
2022-11-10T23:11:32.436Z,101959.72
2022-11-10T23:14:17.741Z,101955.94
2022-11-10T23:17:03.156Z,101950.69
2022-11-10T23:19:48.165Z,101946.38
2022-11-10T23:22:33.502Z,101946.50
2022-11-10T23:25:18.761Z,101942.69
2022-11-10T23:28:04.396Z,101942.75
2022-11-10T23:30:49.722Z,101945.88
2022-11-10T23:33:36.390Z,101952.19
2022-11-10T23:36:23.292Z,101948.50
2022-11-10T23:39:08.264Z,101964.88
2022-11-10T23:41:53.562Z,101975.31
2022-11-10T23:44:38.612Z,101974.31
2022-11-10T23:47:24.030Z,101977.06
2022-11-10T23:50:09.827Z,101980.31
2022-11-10T23:52:55.121Z,101981.19
2022-11-10T23:55:41.321Z,101990.69
2022-11-10T23:58:28.129Z,101998.53
